TSC418 CYYZ-EDDB
Flight info
| Callsign | TSC418 |
|---|---|
| Flight time | N/A |
| Altitude | 33000 |
| Route | VERDO7 IPTOS Q921 IMORI DCT CEFOU N871A DORYY/M079F360 NATT KESIX/N0452F370 DCT AMLAD DCT AGPED DCT RENEQ DCT BUMIL L619 VIBIS T209 OGBER OGBER1L |
| Aircraft | A21N/M-SDE2E3FGHIRWXY/LB1 |
Departure
| Time | N/A |
|---|---|
| Airport | Toronto Pearson International Airport (CYYZ) |
Arrival
| Time | 2026-05-01 07:40 |
|---|---|
| Airport | Berlin Brandenburg Airport (EDDB) |
| Time | Latitude | Longitude | Altitude | Speed | Heading |
|---|---|---|---|---|---|
| 2026-05-01 07:23 | 52.63873 | 12.95559 | 11383 ft | 275 kts | 79° |
| 2026-05-01 07:23 | 52.64548 | 13.01761 | 11142 ft | 275 kts | 79° |
| 2026-05-01 07:24 | 52.64879 | 13.04855 | 11014 ft | 274 kts | 79° |
| 2026-05-01 07:24 | 52.65206 | 13.07904 | 10902 ft | 274 kts | 79° |
| 2026-05-01 07:24 | 52.65535 | 13.10991 | 10782 ft | 274 kts | 79° |
| 2026-05-01 07:24 | 52.65862 | 13.14078 | 10672 ft | 273 kts | 78° |
| 2026-05-01 07:25 | 52.66190 | 13.17164 | 10562 ft | 272 kts | 78° |
| 2026-05-01 07:25 | 52.66513 | 13.20240 | 10439 ft | 272 kts | 78° |
| 2026-05-01 07:25 | 52.66839 | 13.23310 | 10319 ft | 272 kts | 78° |
| 2026-05-01 07:25 | 52.67162 | 13.26384 | 10190 ft | 272 kts | 79° |
| 2026-05-01 07:26 | 52.67387 | 13.28590 | 10100 ft | 272 kts | 79° |
| 2026-05-01 07:26 | 52.67706 | 13.31657 | 9965 ft | 271 kts | 79° |
| 2026-05-01 07:26 | 52.68026 | 13.34719 | 9833 ft | 271 kts | 78° |
| 2026-05-01 07:27 | 52.68346 | 13.37771 | 9701 ft | 270 kts | 78° |
| 2026-05-01 07:27 | 52.68667 | 13.40829 | 9573 ft | 270 kts | 79° |
| 2026-05-01 07:27 | 52.68978 | 13.43843 | 9443 ft | 270 kts | 79° |
| 2026-05-01 07:27 | 52.69291 | 13.46889 | 9313 ft | 270 kts | 79° |
| 2026-05-01 07:28 | 52.69603 | 13.49942 | 9175 ft | 269 kts | 79° |
| 2026-05-01 07:28 | 52.69916 | 13.52985 | 9054 ft | 269 kts | 79° |
| 2026-05-01 07:28 | 52.70224 | 13.56021 | 8928 ft | 269 kts | 79° |
| 2026-05-01 07:28 | 52.70535 | 13.59067 | 8802 ft | 268 kts | 79° |
| 2026-05-01 07:29 | 52.70845 | 13.62101 | 8673 ft | 268 kts | 79° |
| 2026-05-01 07:29 | 52.71154 | 13.65107 | 8538 ft | 268 kts | 79° |
| 2026-05-01 07:29 | 52.71453 | 13.68093 | 8431 ft | 258 kts | 81° |
| 2026-05-01 07:29 | 52.71394 | 13.70945 | 8409 ft | 244 kts | 103° |
| 2026-05-01 07:30 | 52.70561 | 13.73325 | 8311 ft | 243 kts | 132° |
| 2026-05-01 07:30 | 52.69135 | 13.74855 | 7993 ft | 247 kts | 150° |
| 2026-05-01 07:30 | 52.67569 | 13.76032 | 7618 ft | 248 kts | 152° |
| 2026-05-01 07:30 | 52.66013 | 13.77201 | 7265 ft | 250 kts | 152° |
| 2026-05-01 07:31 | 52.64438 | 13.78409 | 6920 ft | 249 kts | 152° |
| 2026-05-01 07:31 | 52.59788 | 13.82049 | 5876 ft | 244 kts | 152° |
| 2026-05-01 07:32 | 52.56762 | 13.84443 | 5239 ft | 239 kts | 152° |
| 2026-05-01 07:32 | 52.55262 | 13.85632 | 4848 ft | 239 kts | 152° |
| 2026-05-01 07:33 | 52.52422 | 13.88184 | 4474 ft | 227 kts | 148° |
| 2026-05-01 07:33 | 52.51065 | 13.89472 | 4340 ft | 228 kts | 148° |
| 2026-05-01 07:33 | 52.48209 | 13.91650 | 4055 ft | 230 kts | 173° |
| 2026-05-01 07:34 | 52.46621 | 13.91346 | 3984 ft | 231 kts | 205° |
| 2026-05-01 07:34 | 52.45023 | 13.87115 | 4004 ft | 228 kts | 264° |
| 2026-05-01 07:34 | 52.44831 | 13.84535 | 4011 ft | 228 kts | 264° |
| 2026-05-01 07:35 | 52.44543 | 13.82008 | 3870 ft | 221 kts | 258° |
| 2026-05-01 07:35 | 52.44122 | 13.79630 | 3624 ft | 214 kts | 253° |
| 2026-05-01 07:35 | 52.43597 | 13.77385 | 3357 ft | 208 kts | 251° |
| 2026-05-01 07:35 | 52.43082 | 13.75191 | 3088 ft | 203 kts | 251° |
| 2026-05-01 07:36 | 52.42573 | 13.73033 | 2823 ft | 203 kts | 251° |
| 2026-05-01 07:36 | 52.42070 | 13.70902 | 2539 ft | 197 kts | 251° |
| 2026-05-01 07:36 | 52.41590 | 13.68868 | 2330 ft | 187 kts | 251° |
| 2026-05-01 07:36 | 52.41153 | 13.67023 | 2127 ft | 163 kts | 251° |
| 2026-05-01 07:37 | 52.40425 | 13.63936 | 1635 ft | 137 kts | 251° |
| 2026-05-01 07:37 | 52.40082 | 13.62489 | 1441 ft | 136 kts | 251° |
| 2026-05-01 07:37 | 52.39736 | 13.61045 | 1289 ft | 136 kts | 251° |
| 2026-05-01 07:38 | 52.39405 | 13.59601 | 1120 ft | 135 kts | 252° |
| 2026-05-01 07:38 | 52.39047 | 13.58180 | 932 ft | 134 kts | 249° |
| 2026-05-01 07:38 | 52.38375 | 13.55309 | 554 ft | 135 kts | 250° |
| 2026-05-01 07:39 | 52.38040 | 13.53872 | 364 ft | 135 kts | 251° |
| 2026-05-01 07:39 | 52.37697 | 13.52434 | 199 ft | 135 kts | 251° |
| 2026-05-01 07:39 | 52.37159 | 13.50147 | 160 ft | 63 kts | 249° |
| 2026-05-01 07:40 | 52.37036 | 13.49729 | 160 ft | 30 kts | 226° |
| 2026-05-01 07:40 | 52.36881 | 13.49496 | 160 ft | 19 kts | 212° |
| 2026-05-01 07:40 | 52.36768 | 13.49464 | 160 ft | 18 kts | 160° |
| 2026-05-01 07:40 | 52.36697 | 13.49529 | 160 ft | 13 kts | 120° |
| 2026-05-01 07:41 | 52.36717 | 13.49680 | 160 ft | 15 kts | 69° |
| 2026-05-01 07:41 | 52.36758 | 13.49855 | 160 ft | 17 kts | 69° |
| 2026-05-01 07:41 | 52.36743 | 13.50209 | 160 ft | 21 kts | 157° |
| 2026-05-01 07:42 | 52.36600 | 13.50303 | 160 ft | 23 kts | 159° |
| 2026-05-01 07:42 | 52.36446 | 13.50401 | 160 ft | 24 kts | 159° |
| 2026-05-01 07:42 | 52.36363 | 13.50478 | 160 ft | 8 kts | 90° |
| 2026-05-01 07:42 | 52.36382 | 13.50566 | 160 ft | 5 kts | 69° |
| 2026-05-01 07:43 | 52.36388 | 13.50593 | 160 ft | 0 kts | 69° |